Mentone, CA

7:36 PM PDT on October 20, 2014 (GMT -0700)
Marion Road | Change Station
CLOSE
Current Station
Personal Weather Station
Location: Redlands, CA
Elevation: 1729 ft
Nearby Weather Stations

Elev 1729 ft 34.04 °N, 117.15 °W | Updated 9 seconds ago

Clear
Clear
68.2 °F
Feels Like 68.2 °F
N
0.0
Wind Variable Wind from South
Gusts 0.0 mph

Today
High -- | Low -- °F
--% Chance of Precip.
Yesterday
High -- | Low -- °F
Precip. -- in
6:57 AM 6:08 PM
Waning Crescent, 8% visible
Pressure 29.88 in
Visibility 10.0 miles
Clouds Clear
Dew Point 60 °F
Humidity 75%
Rainfall 0.00 in
Snow Depth Not available.
UV 0 out of 12
Pollen 3.50 out of 12
Ozone Good
Flu Activity Sporadic
METAR KSBD 210150Z 22004KT 10SM SKC 23/12 A2988

More Conditions Fewer Conditions

Pressure 29.88 in
Visibility 10.0 miles
Clouds Clear
Dew Point 60 °F
Humidity 75%
Rainfall 0.00 in
Snow Depth Not available.
UV 0 out of 12
Pollen 3.50 out of 12
Ozone Good
Flu Activity Sporadic
METAR KSBD 210150Z 22004KT 10SM SKC 23/12 A2988

More Conditions Fewer Conditions

10-Day Weather Forecast

Almanac

Astronomy

Oct. 20, 2014 Rise Set
Actual Time 6:57 AM PDT 6:08 PM PDT
Civil Twilight 6:32 AM PDT 6:33 PM PDT
Nautical Twilight 6:03 AM PDT 7:02 PM PDT
Astronomical Twilight 5:34 AM PDT 7:31 PM PDT
Moon 3:58 AM PDT (10/20) 4:26 PM PDT (10/20)
Length of Visible Light 12h 01m
Length of Day
11h 10m
Tomorrow will be 2m 0s shorter.
Waning Crescent, 8% of the Moon is Illuminated
Today
Waning Crescent
Oct 23
New
Oct 30
First Quarter
Nov 6
Full
Nov 14
Last Quarter

Today's Extremes

State Highs State Lows

Community

WunderPhotos

Upload Photos

1,763,577 photos uploaded!

Nearby

Air Quality

  Air Quality AQ Index Pollutant
Yesterday Moderate
OZONE
Current Good
OZONE
Tuesday Good
PM10
Tuesday Moderate
OZONE
Tuesday Good
CO
Tuesday Good
NO2

Snow Depth

Station Depth Elevation
Virginia Lakes Ridge 0 in 9200 ft
Leavitt Lake 1 in 9400 ft
Leavitt Meadows 1 in 7200 ft
Sonora Pass 0 in 8800 ft
Summit Meadow 1 in 9122 ft

Earthquake Activity

City Distance Mag. Time & Date
No recent earthquake activity has been reported nearby.
Minimum magnitude displayed is 2.5.

Coastal Water Temperatures

Place Temperature
No Stations Reporting

Nearby Weather Stations